createdAt,value
2022-10-30T00:01:34.259Z,99918.75
2022-10-30T00:04:00.652Z,99932.75
2022-10-30T00:06:27.049Z,99934.25
2022-10-30T00:08:53.577Z,99929.38
2022-10-30T00:11:20.004Z,99922.13
2022-10-30T00:13:46.393Z,99921.31
2022-10-30T00:16:12.788Z,99917.78
2022-10-30T00:18:39.826Z,99920.22
2022-10-30T00:21:12.025Z,99911.13
2022-10-30T00:23:39.284Z,99916.44
2022-10-30T00:26:06.963Z,99910.38
2022-10-30T00:28:33.687Z,99908.38
2022-10-30T00:31:01.485Z,99913.84
2022-10-30T00:33:29.126Z,99909.34
2022-10-30T00:35:55.598Z,99921.88
2022-10-30T00:38:22.186Z,99917.78
2022-10-30T00:40:49.365Z,99917.81
2022-10-30T00:43:28.474Z,99913.63
2022-10-30T00:45:56.467Z,99906.75
2022-10-30T00:48:25.386Z,99921.81
2022-10-30T00:50:53.375Z,99908.44
2022-10-30T00:53:21.629Z,99906.03
2022-10-30T00:55:53.972Z,99907.72
2022-10-30T00:58:33.794Z,99909.41
2022-10-30T01:01:04.189Z,99911.94
2022-10-30T01:03:32.012Z,99903.53
2022-10-30T01:06:02.838Z,99921.50
2022-10-30T01:08:29.862Z,99907.84
2022-10-30T01:10:59.682Z,99912.31
2022-10-30T01:13:27.981Z,99908.56
2022-10-30T01:16:21.799Z,99910.97
2022-10-30T01:19:26.523Z,99912.47
2022-10-30T01:22:11.095Z,99913.69
2022-10-30T01:25:04.343Z,99922.47
2022-10-30T01:27:58.544Z,99930.84
2022-10-30T01:30:49.818Z,99921.56
2022-10-30T01:33:45.085Z,99919.19
2022-10-30T01:37:04.303Z,99926.16
2022-10-30T01:39:37.147Z,99928.97
2022-10-30T01:42:41.237Z,99922.81
2022-10-30T01:45:08.208Z,99926.56
2022-10-30T01:47:53.024Z,99922.94
2022-10-30T01:50:37.481Z,99918.34
2022-10-30T01:53:14.618Z,99924.53
2022-10-30T01:55:47.237Z,99913.22
2022-10-30T01:58:27.034Z,99924.16
2022-10-30T02:00:58.821Z,99926.22
2022-10-30T02:03:26.524Z,99932.72
2022-10-30T02:05:54.006Z,99929.44
2022-10-30T02:08:22.972Z,99932.19
2022-10-30T02:10:52.811Z,99918.41
2022-10-30T02:13:31.391Z,99928.50
2022-10-30T02:15:59.094Z,99936.66
2022-10-30T02:18:25.662Z,99928.78
2022-10-30T02:20:53.108Z,99942.03
2022-10-30T02:23:22.249Z,99927.59
2022-10-30T02:25:49.936Z,99925.16
2022-10-30T02:28:16.418Z,99935.47
2022-10-30T02:30:45.768Z,99930.66
2022-10-30T02:33:12.272Z,99933.53
2022-10-30T02:35:38.765Z,99924.81
2022-10-30T02:38:05.232Z,99928.88
2022-10-30T02:40:31.864Z,99912.97
2022-10-30T02:42:58.267Z,99931.88
2022-10-30T02:45:24.823Z,99916.09
2022-10-30T02:47:51.330Z,99933.78
2022-10-30T02:50:18.273Z,99927.81
2022-10-30T02:52:44.741Z,99938.84
2022-10-30T02:55:11.931Z,99912.63
2022-10-30T02:57:39.002Z,99927.66
2022-10-30T03:00:06.617Z,99924.63
2022-10-30T03:02:33.398Z,99919.31
2022-10-30T03:05:00.222Z,99916.72
2022-10-30T03:07:26.713Z,99914.22
2022-10-30T03:09:54.390Z,99915.19
2022-10-30T03:12:21.966Z,99909.16
2022-10-30T03:14:48.643Z,99905.25
2022-10-30T03:17:15.060Z,99899.28
2022-10-30T03:19:41.731Z,99901.31
2022-10-30T03:22:08.844Z,99917.22
2022-10-30T03:24:38.169Z,99899.19
2022-10-30T03:27:05.268Z,99904.25
2022-10-30T03:29:31.640Z,99907.97
2022-10-30T03:31:58.078Z,99911.47
2022-10-30T03:34:29.435Z,99906.56
2022-10-30T03:36:57.666Z,99908.75
2022-10-30T03:39:24.166Z,99907.78
2022-10-30T03:41:50.715Z,99898.97
2022-10-30T03:44:17.400Z,99896.97
2022-10-30T03:46:43.809Z,99894.91
2022-10-30T03:49:21.503Z,99891.06
2022-10-30T03:51:48.003Z,99893.47
2022-10-30T03:54:14.422Z,99889.59
2022-10-30T03:56:40.865Z,99889.38
2022-10-30T03:59:12.575Z,99888.56
2022-10-30T04:01:40.787Z,99887.47
2022-10-30T04:04:07.318Z,99882.88
2022-10-30T04:06:33.821Z,99887.50
2022-10-30T04:09:01.247Z,99881.72
2022-10-30T04:11:33.914Z,99884.72
2022-10-30T04:14:00.345Z,99888.44
2022-10-30T04:16:26.804Z,99882.69
2022-10-30T04:18:53.507Z,99880.03
2022-10-30T04:21:19.983Z,99878.94
2022-10-30T04:23:49.035Z,99872.44
2022-10-30T04:26:16.572Z,99881.72
2022-10-30T04:28:47.202Z,99888.09
2022-10-30T04:31:13.613Z,99889.94
2022-10-30T04:33:40.278Z,99890.47
2022-10-30T04:36:07.284Z,99899.09
2022-10-30T04:38:33.711Z,99904.66
2022-10-30T04:41:01.174Z,99908.03
2022-10-30T04:43:42.365Z,99908.53
2022-10-30T04:46:08.812Z,99895.91
2022-10-30T04:48:37.107Z,99895.66
2022-10-30T04:51:04.539Z,99890.50
2022-10-30T04:53:31.026Z,99887.56
2022-10-30T04:56:06.079Z,99889.03
2022-10-30T04:58:32.505Z,99880.00
2022-10-30T05:01:05.140Z,99892.88
2022-10-30T05:03:33.468Z,99881.59
2022-10-30T05:06:15.851Z,99889.25
2022-10-30T05:08:42.264Z,99885.31
2022-10-30T05:11:19.118Z,99878.91
2022-10-30T05:13:46.537Z,99883.47
2022-10-30T05:16:13.046Z,99880.34
2022-10-30T05:18:39.499Z,99889.75
2022-10-30T05:21:06.079Z,99882.28
2022-10-30T05:23:32.574Z,99885.44
2022-10-30T05:26:00.968Z,99891.56
2022-10-30T05:28:27.766Z,99893.13
2022-10-30T05:30:56.951Z,99891.56
2022-10-30T05:33:41.596Z,99898.78
2022-10-30T05:36:08.596Z,99880.34
2022-10-30T05:38:35.164Z,99891.47
2022-10-30T05:41:02.402Z,99903.00
2022-10-30T05:43:28.882Z,99901.88
2022-10-30T05:45:55.523Z,99903.13
2022-10-30T05:48:22.052Z,99902.78
2022-10-30T05:50:48.602Z,99905.25
2022-10-30T05:53:24.762Z,99909.63
2022-10-30T05:55:57.154Z,99905.06
2022-10-30T05:58:24.933Z,99913.72
2022-10-30T06:00:54.001Z,99905.53
2022-10-30T06:03:33.826Z,99903.00
2022-10-30T06:06:00.904Z,99903.00
2022-10-30T06:08:27.405Z,99906.16
2022-10-30T06:10:57.715Z,99905.91
2022-10-30T06:13:34.378Z,99903.84
2022-10-30T06:16:06.469Z,99910.97
2022-10-30T06:18:56.168Z,99904.59
2022-10-30T06:21:24.710Z,99919.28
2022-10-30T06:24:04.706Z,99911.06
2022-10-30T06:26:42.780Z,99915.75
2022-10-30T06:29:13.021Z,99917.81
2022-10-30T06:31:40.463Z,99914.34
2022-10-30T06:34:06.864Z,99922.50
2022-10-30T06:36:34.989Z,99920.34
2022-10-30T06:39:01.613Z,99912.31
2022-10-30T06:41:36.330Z,99905.19
2022-10-30T06:44:26.067Z,99919.66
2022-10-30T06:46:54.189Z,99928.53
2022-10-30T06:49:20.709Z,99927.59
2022-10-30T06:51:49.094Z,99928.78
2022-10-30T06:54:15.635Z,99927.81
2022-10-30T06:57:02.085Z,99918.19
2022-10-30T06:59:41.205Z,99927.84
2022-10-30T07:02:21.952Z,99926.38
2022-10-30T07:04:52.893Z,99918.81
2022-10-30T07:07:19.393Z,99929.03
2022-10-30T07:09:48.733Z,99928.06
2022-10-30T07:12:22.711Z,99922.88
2022-10-30T07:15:10.728Z,99928.06
2022-10-30T07:18:09.134Z,99921.69
2022-10-30T07:20:36.940Z,99931.56
2022-10-30T07:23:05.218Z,99926.50
2022-10-30T07:25:32.189Z,99918.91
2022-10-30T07:28:15.666Z,99917.00
2022-10-30T07:30:48.648Z,99922.03
2022-10-30T07:33:35.016Z,99925.53
2022-10-30T07:36:14.964Z,99921.81
2022-10-30T07:38:48.382Z,99922.03
2022-10-30T07:41:27.216Z,99919.16
2022-10-30T07:44:31.678Z,99925.06
2022-10-30T07:47:12.834Z,99922.91
2022-10-30T07:49:54.909Z,99910.38
2022-10-30T07:52:21.293Z,99911.53
2022-10-30T07:54:48.969Z,99924.31
2022-10-30T07:57:44.693Z,99935.41
2022-10-30T08:00:29.681Z,99940.09
2022-10-30T08:03:06.237Z,99935.63
2022-10-30T08:05:45.084Z,99935.50
2022-10-30T08:08:14.113Z,99929.63
2022-10-30T08:10:40.702Z,99937.69
2022-10-30T08:13:07.656Z,99943.94
2022-10-30T08:15:34.207Z,99939.75
2022-10-30T08:18:01.722Z,99950.34
2022-10-30T08:20:28.350Z,99934.91
2022-10-30T08:22:57.727Z,99936.22
2022-10-30T08:25:30.067Z,99946.94
2022-10-30T08:28:03.317Z,99938.88
2022-10-30T08:30:36.394Z,99940.69
2022-10-30T08:33:06.265Z,99935.88
2022-10-30T08:35:53.628Z,99934.06
2022-10-30T08:38:20.166Z,99945.63
2022-10-30T08:40:55.613Z,99938.41
2022-10-30T08:43:25.160Z,99935.41
2022-10-30T08:45:52.153Z,99946.81
2022-10-30T08:48:21.028Z,99931.78
2022-10-30T08:50:47.454Z,99935.53
2022-10-30T08:53:20.410Z,99928.28
2022-10-30T08:55:48.031Z,99939.31
2022-10-30T08:58:31.189Z,99929.47
2022-10-30T09:01:01.333Z,99927.19
2022-10-30T09:03:47.793Z,99937.19
2022-10-30T09:06:40.036Z,99936.44
2022-10-30T09:09:35.644Z,99935.63
2022-10-30T09:12:03.380Z,99936.66
2022-10-30T09:14:35.128Z,99919.94
2022-10-30T09:17:01.586Z,99932.53
2022-10-30T09:19:29.213Z,99928.78
2022-10-30T09:21:57.943Z,99923.59
2022-10-30T09:24:24.455Z,99927.69
2022-10-30T09:26:50.889Z,99937.09
2022-10-30T09:29:22.757Z,99941.91
2022-10-30T09:31:54.897Z,99937.66
2022-10-30T09:34:23.985Z,99926.09
2022-10-30T09:36:57.424Z,99928.34
2022-10-30T09:39:25.325Z,99924.34
2022-10-30T09:42:36.488Z,99938.19
2022-10-30T09:45:37.733Z,99938.66
2022-10-30T09:48:16.202Z,99933.78
2022-10-30T09:51:21.263Z,99929.78
2022-10-30T09:54:06.040Z,99930.41
2022-10-30T09:56:45.173Z,99931.94
2022-10-30T09:59:34.068Z,99924.94
2022-10-30T10:02:20.238Z,99930.06
2022-10-30T10:04:52.485Z,99922.53
2022-10-30T10:08:07.867Z,99919.41
2022-10-30T10:11:00.000Z,99928.72
2022-10-30T10:13:41.142Z,99913.38
2022-10-30T10:16:20.216Z,99912.69
2022-10-30T10:19:21.062Z,99917.94
2022-10-30T10:21:58.676Z,99922.13
2022-10-30T10:24:28.782Z,99914.72
2022-10-30T10:27:16.567Z,99919.69
2022-10-30T10:30:14.672Z,99905.47
2022-10-30T10:33:09.937Z,99910.53
2022-10-30T10:35:44.307Z,99904.25
2022-10-30T10:38:25.910Z,99897.53
2022-10-30T10:41:14.284Z,99914.06
2022-10-30T10:43:58.773Z,99902.53
2022-10-30T10:47:01.768Z,99893.25
2022-10-30T10:49:47.331Z,99890.09
2022-10-30T10:52:17.276Z,99894.78
2022-10-30T10:54:47.664Z,99892.22
2022-10-30T10:57:35.786Z,99886.53
2022-10-30T11:00:13.242Z,99886.25
2022-10-30T11:02:59.503Z,99881.75
2022-10-30T11:05:33.534Z,99881.94
2022-10-30T11:08:11.230Z,99879.28
2022-10-30T11:10:37.803Z,99869.28
2022-10-30T11:13:04.217Z,99872.41
2022-10-30T11:15:51.549Z,99876.16
2022-10-30T11:18:17.943Z,99862.69
2022-10-30T11:21:09.621Z,99861.75
2022-10-30T11:23:47.492Z,99858.41
2022-10-30T11:26:23.018Z,99868.13
2022-10-30T11:28:58.327Z,99860.38
2022-10-30T11:31:24.763Z,99857.91
2022-10-30T11:33:51.920Z,99863.78
2022-10-30T11:36:23.358Z,99854.00
2022-10-30T11:38:50.301Z,99853.34
2022-10-30T11:41:18.158Z,99853.84
2022-10-30T11:43:45.258Z,99846.69
2022-10-30T11:46:21.056Z,99855.59
2022-10-30T11:48:54.491Z,99837.38
2022-10-30T11:51:35.100Z,99848.75
2022-10-30T11:54:02.344Z,99842.22
2022-10-30T11:56:35.396Z,99839.09
2022-10-30T11:59:04.588Z,99842.47
2022-10-30T12:01:36.022Z,99833.09
2022-10-30T12:04:29.453Z,99838.44
2022-10-30T12:07:14.426Z,99836.44
2022-10-30T12:09:46.264Z,99834.44
2022-10-30T12:12:42.206Z,99822.56
2022-10-30T12:15:08.572Z,99827.22
2022-10-30T12:17:35.189Z,99812.81
2022-10-30T12:20:03.045Z,99819.97
2022-10-30T12:22:32.736Z,99811.84
2022-10-30T12:25:03.740Z,99809.47
2022-10-30T12:27:34.360Z,99822.78
2022-10-30T12:30:14.699Z,99818.25
2022-10-30T12:32:50.312Z,99812.19
2022-10-30T12:35:25.725Z,99812.81
2022-10-30T12:37:54.231Z,99802.75
2022-10-30T12:40:30.025Z,99796.53
2022-10-30T12:43:19.468Z,99803.88
2022-10-30T12:45:50.945Z,99805.06
2022-10-30T12:48:41.213Z,99810.22
2022-10-30T12:51:15.927Z,99799.03
2022-10-30T12:53:58.394Z,99798.22
2022-10-30T12:56:36.148Z,99793.19
2022-10-30T12:59:17.650Z,99799.03
2022-10-30T13:02:35.800Z,99794.53
2022-10-30T13:05:07.079Z,99788.53
2022-10-30T13:07:47.436Z,99786.00
2022-10-30T13:10:32.062Z,99797.19
2022-10-30T13:13:11.172Z,99777.19
2022-10-30T13:15:44.545Z,99774.34
2022-10-30T13:18:17.402Z,99785.88
2022-10-30T13:20:55.877Z,99774.13
2022-10-30T13:23:32.669Z,99773.81
2022-10-30T13:26:02.272Z,99780.53
2022-10-30T13:28:36.899Z,99770.84
2022-10-30T13:31:30.593Z,99783.84
2022-10-30T13:34:20.785Z,99781.19
2022-10-30T13:36:55.499Z,99785.53
2022-10-30T13:39:33.898Z,99780.88
2022-10-30T13:42:20.560Z,99788.88
2022-10-30T13:45:08.351Z,99784.41
2022-10-30T13:47:52.867Z,99779.19
2022-10-30T13:50:40.205Z,99787.19
2022-10-30T13:53:15.333Z,99778.50
2022-10-30T13:55:44.673Z,99784.19
2022-10-30T13:58:17.255Z,99790.03
2022-10-30T14:00:55.930Z,99794.53
2022-10-30T14:03:50.420Z,99794.53
2022-10-30T14:06:35.154Z,99790.22
2022-10-30T14:09:28.595Z,99807.22
2022-10-30T14:11:55.365Z,99790.13
2022-10-30T14:14:33.001Z,99794.00
2022-10-30T14:17:14.624Z,99783.63
2022-10-30T14:20:21.706Z,99791.50
2022-10-30T14:23:07.958Z,99792.81
2022-10-30T14:25:34.808Z,99780.94
2022-10-30T14:28:01.963Z,99785.44
2022-10-30T14:30:29.210Z,99790.78
2022-10-30T14:32:56.236Z,99794.09
2022-10-30T14:35:32.915Z,99791.44
2022-10-30T14:38:22.621Z,99792.47
2022-10-30T14:41:08.414Z,99788.41
2022-10-30T14:44:03.218Z,99792.78
2022-10-30T14:46:45.410Z,99797.72
2022-10-30T14:49:48.697Z,99792.38
2022-10-30T14:52:39.985Z,99800.56
2022-10-30T14:55:23.385Z,99803.53
2022-10-30T14:58:02.117Z,99801.84
2022-10-30T15:00:37.604Z,99799.66
2022-10-30T15:03:10.101Z,99798.81
2022-10-30T15:05:39.665Z,99805.00
2022-10-30T15:08:24.644Z,99793.25
2022-10-30T15:11:07.836Z,99809.63
2022-10-30T15:13:34.411Z,99805.59
2022-10-30T15:16:07.977Z,99797.94
2022-10-30T15:18:34.672Z,99809.25
2022-10-30T15:21:06.564Z,99807.06
2022-10-30T15:23:36.481Z,99815.22
2022-10-30T15:26:09.860Z,99810.88
2022-10-30T15:28:38.658Z,99817.38
2022-10-30T15:31:05.286Z,99813.72
2022-10-30T15:33:35.369Z,99817.81
2022-10-30T15:36:01.916Z,99810.41
2022-10-30T15:38:28.394Z,99816.03
2022-10-30T15:41:01.028Z,99825.34
2022-10-30T15:43:36.956Z,99813.31
2022-10-30T15:46:10.048Z,99820.78
2022-10-30T15:48:40.810Z,99825.25
2022-10-30T15:51:15.234Z,99822.50
2022-10-30T15:53:47.774Z,99831.66
2022-10-30T15:56:33.654Z,99834.09
2022-10-30T15:59:03.195Z,99838.56
2022-10-30T16:01:38.412Z,99837.34
2022-10-30T16:04:14.742Z,99844.81
2022-10-30T16:06:49.064Z,99844.84
2022-10-30T16:09:15.541Z,99850.78
2022-10-30T16:11:42.282Z,99835.22
2022-10-30T16:14:14.485Z,99850.09
2022-10-30T16:16:41.368Z,99845.09
2022-10-30T16:19:07.964Z,99848.41
2022-10-30T16:21:35.112Z,99853.81
2022-10-30T16:24:04.234Z,99855.94
2022-10-30T16:26:36.759Z,99850.78
2022-10-30T16:29:18.360Z,99850.91
2022-10-30T16:31:49.727Z,99864.81
2022-10-30T16:34:22.784Z,99865.53
2022-10-30T16:36:50.280Z,99863.28
2022-10-30T16:39:18.666Z,99861.72
2022-10-30T16:41:45.271Z,99857.38
2022-10-30T16:44:25.328Z,99863.47
2022-10-30T16:46:54.984Z,99857.28
2022-10-30T16:49:25.227Z,99863.31
2022-10-30T16:51:57.929Z,99854.09
2022-10-30T16:54:31.506Z,99857.91
2022-10-30T16:57:01.728Z,99864.75
2022-10-30T16:59:44.344Z,99873.44
2022-10-30T17:02:20.634Z,99877.22
2022-10-30T17:04:55.400Z,99868.28
2022-10-30T17:07:26.374Z,99865.59
2022-10-30T17:09:56.730Z,99881.69
2022-10-30T17:12:25.454Z,99884.34
2022-10-30T17:14:54.781Z,99891.09
2022-10-30T17:17:25.198Z,99892.75
2022-10-30T17:20:01.411Z,99889.28
2022-10-30T17:22:28.853Z,99896.56
2022-10-30T17:24:55.409Z,99908.16
2022-10-30T17:27:40.920Z,99915.75
2022-10-30T17:30:35.206Z,99919.09
2022-10-30T17:33:04.213Z,99923.28
2022-10-30T17:35:30.788Z,99926.50
2022-10-30T17:37:59.819Z,99932.25
2022-10-30T17:40:29.418Z,99932.25
2022-10-30T17:42:55.812Z,99940.22
2022-10-30T17:45:22.390Z,99931.66
2022-10-30T17:47:48.795Z,99947.06
2022-10-30T17:50:15.235Z,99947.91
2022-10-30T17:52:41.649Z,99949.16
2022-10-30T17:55:23.160Z,99943.69
2022-10-30T17:57:49.620Z,99947.00
2022-10-30T18:00:16.847Z,99961.88
2022-10-30T18:02:43.291Z,99962.59
2022-10-30T18:05:16.423Z,99972.22
2022-10-30T18:07:43.342Z,99959.22
2022-10-30T18:10:10.098Z,99967.97
2022-10-30T18:12:36.542Z,99971.50
2022-10-30T18:15:25.975Z,99970.75
2022-10-30T18:17:52.405Z,99972.69
2022-10-30T18:20:18.869Z,99981.25
2022-10-30T18:22:45.322Z,99980.00
2022-10-30T18:25:20.058Z,99981.78
2022-10-30T18:27:46.602Z,99983.66
2022-10-30T18:30:14.826Z,99991.59
2022-10-30T18:32:42.969Z,99983.38
2022-10-30T18:35:33.188Z,99986.28
2022-10-30T18:37:59.791Z,99993.03
2022-10-30T18:40:26.215Z,99972.84
2022-10-30T18:42:52.575Z,99980.41
2022-10-30T18:45:24.986Z,99995.22
2022-10-30T18:47:52.646Z,99985.03
2022-10-30T18:50:21.593Z,99995.69
2022-10-30T18:52:48.686Z,100005.97
2022-10-30T18:55:21.606Z,100002.47
2022-10-30T18:57:49.594Z,100014.53
2022-10-30T19:00:25.056Z,100018.00
2022-10-30T19:02:52.695Z,100014.38
2022-10-30T19:05:27.747Z,100019.84
2022-10-30T19:07:54.758Z,100023.16
2022-10-30T19:10:21.589Z,100023.81
2022-10-30T19:13:11.041Z,100023.16
2022-10-30T19:15:37.405Z,100016.88
2022-10-30T19:18:05.218Z,100014.22
2022-10-30T19:20:50.901Z,100023.34
2022-10-30T19:23:21.765Z,100026.97
2022-10-30T19:25:49.471Z,100014.06
2022-10-30T19:28:18.336Z,100020.44
2022-10-30T19:30:50.109Z,100024.63
2022-10-30T19:33:18.136Z,100032.34
2022-10-30T19:35:44.601Z,100034.75
2022-10-30T19:38:12.338Z,100033.06
2022-10-30T19:40:40.173Z,100026.06
2022-10-30T19:43:07.063Z,100027.50
2022-10-30T19:45:34.504Z,100032.56
2022-10-30T19:48:06.427Z,100035.84
2022-10-30T19:50:44.778Z,100026.44
2022-10-30T19:53:12.744Z,100032.47
2022-10-30T19:55:41.450Z,100021.94
2022-10-30T19:58:12.856Z,100024.81
2022-10-30T20:00:41.318Z,100015.25
2022-10-30T20:03:07.870Z,100023.16
2022-10-30T20:05:37.662Z,100035.56
2022-10-30T20:08:06.095Z,100028.63
2022-10-30T20:10:36.079Z,100028.03
2022-10-30T20:13:04.088Z,100027.78
2022-10-30T20:15:30.684Z,100021.75
2022-10-30T20:17:58.383Z,100030.81
2022-10-30T20:20:33.993Z,100022.66
2022-10-30T20:23:00.528Z,100023.63
2022-10-30T20:25:27.817Z,100021.13
2022-10-30T20:28:06.620Z,100030.78
2022-10-30T20:30:33.607Z,100032.56
2022-10-30T20:33:00.385Z,100028.91
2022-10-30T20:35:27.123Z,100035.88
2022-10-30T20:38:03.458Z,100045.97
2022-10-30T20:40:30.749Z,100034.25
2022-10-30T20:43:02.660Z,100030.72
2022-10-30T20:45:29.824Z,100042.06
2022-10-30T20:47:56.364Z,100042.31
2022-10-30T20:50:23.419Z,100051.00
2022-10-30T20:52:49.879Z,100037.47
2022-10-30T20:55:16.445Z,100045.69
2022-10-30T20:57:43.084Z,100043.16
2022-10-30T21:00:11.787Z,100038.81
2022-10-30T21:02:38.429Z,100056.59
2022-10-30T21:05:11.778Z,100051.53
2022-10-30T21:07:50.096Z,100064.81
2022-10-30T21:10:16.530Z,100058.41
2022-10-30T21:12:42.982Z,100058.31
2022-10-30T21:15:09.677Z,100064.09
2022-10-30T21:17:36.164Z,100063.25
2022-10-30T21:20:03.076Z,100059.97
2022-10-30T21:22:29.478Z,100065.56
2022-10-30T21:24:55.891Z,100073.72
2022-10-30T21:27:22.666Z,100067.59
2022-10-30T21:29:49.082Z,100078.22
2022-10-30T21:32:15.566Z,100077.81
2022-10-30T21:34:41.951Z,100063.00
2022-10-30T21:37:08.370Z,100063.63
2022-10-30T21:39:34.740Z,100067.94
2022-10-30T21:42:01.123Z,100075.81
2022-10-30T21:44:27.478Z,100074.47
2022-10-30T21:46:53.918Z,100077.94
2022-10-30T21:49:20.426Z,100083.59
2022-10-30T21:51:49.542Z,100075.66
2022-10-30T21:54:18.111Z,100077.34
2022-10-30T21:56:44.894Z,100070.63
2022-10-30T21:59:12.331Z,100067.97
2022-10-30T22:01:40.975Z,100070.38
2022-10-30T22:04:10.814Z,100073.38
2022-10-30T22:06:41.998Z,100068.91
2022-10-30T22:09:08.342Z,100078.78
2022-10-30T22:11:35.131Z,100077.34
2022-10-30T22:14:03.756Z,100073.03
2022-10-30T22:16:32.041Z,100077.47
2022-10-30T22:18:59.196Z,100086.28
2022-10-30T22:21:26.208Z,100082.44
2022-10-30T22:23:52.671Z,100079.41
2022-10-30T22:26:21.601Z,100074.22
2022-10-30T22:28:55.399Z,100076.88
2022-10-30T22:31:23.322Z,100082.88
2022-10-30T22:33:50.430Z,100082.44
2022-10-30T22:36:22.511Z,100075.91
2022-10-30T22:38:57.729Z,100085.06
2022-10-30T22:41:24.545Z,100078.09
2022-10-30T22:43:52.467Z,100080.84
2022-10-30T22:46:19.387Z,100082.88
2022-10-30T22:48:45.988Z,100078.69
2022-10-30T22:51:15.468Z,100075.78
2022-10-30T22:53:43.535Z,100080.25
2022-10-30T22:56:20.421Z,100074.13
2022-10-30T22:58:48.459Z,100081.94
2022-10-30T23:01:17.865Z,100079.28
2022-10-30T23:03:45.319Z,100076.75
2022-10-30T23:06:13.017Z,100084.72
2022-10-30T23:08:39.797Z,100082.44
2022-10-30T23:11:07.257Z,100093.63
2022-10-30T23:13:34.832Z,100083.34
2022-10-30T23:16:02.866Z,100090.13
2022-10-30T23:18:29.849Z,100098.28
2022-10-30T23:21:01.993Z,100098.28
2022-10-30T23:23:28.432Z,100093.59
2022-10-30T23:25:54.854Z,100085.16
2022-10-30T23:28:21.253Z,100097.22
2022-10-30T23:30:47.705Z,100098.28
2022-10-30T23:33:14.082Z,100088.75
2022-10-30T23:35:40.466Z,100108.88
2022-10-30T23:38:06.873Z,100106.09
2022-10-30T23:40:33.243Z,100112.97
2022-10-30T23:43:00.139Z,100114.38
2022-10-30T23:45:26.758Z,100113.66
2022-10-30T23:47:53.195Z,100118.50
2022-10-30T23:50:19.595Z,100126.06
2022-10-30T23:52:45.986Z,100123.56
2022-10-30T23:55:12.362Z,100122.22
2022-10-30T23:57:38.738Z,100125.41
